Time;durP1;ratioP1;P1;durP2;ratioP2;P2;SDS_P1;SDS_P2;PMS_P1;PMS_P2;Temp;Humidity;BMP_temperature;BMP_pressure;BME280_temperature;BME280_humidity;BME280_pressure;Samples;Min_cycle;Max_cycle;Signal;HPM_P1;HPM_P2
2023/05/27 00:02:25;;;;;;;17.05;8.10;;;14.40;99.90;;;;;;5043265;28;20532;-41
2023/05/27 00:04:53;;;;;;;19.88;8.45;;;14.40;99.90;;;;;;5024257;28;20453;-37
2023/05/27 00:07:21;;;;;;;17.25;7.40;;;14.40;99.90;;;;;;5049914;28;20049;-42
2023/05/27 00:09:49;;;;;;;14.15;7.30;;;14.30;99.90;;;;;;5055279;28;20044;-42
2023/05/27 00:12:16;;;;;;;16.42;8.10;;;14.40;99.90;;;;;;5056290;28;20037;-41
2023/05/27 00:14:44;;;;;;;18.90;8.57;;;14.40;99.90;;;;;;5039803;28;20070;-43
2023/05/27 00:17:14;;;;;;;19.17;8.13;;;14.30;99.90;;;;;;5053706;28;20082;-41
2023/05/27 00:19:44;;;;;;;17.80;8.38;;;14.30;99.90;;;;;;5053391;28;20037;-40
2023/05/27 00:22:12;;;;;;;12.75;7.43;;;14.20;99.90;;;;;;5056059;28;20037;-41
2023/05/27 00:24:41;;;;;;;15.50;8.25;;;14.20;99.90;;;;;;5045767;28;20112;-40
2023/05/27 00:27:10;;;;;;;18.02;7.93;;;14.20;99.90;;;;;;5055994;28;20072;-38
2023/05/27 00:29:37;;;;;;;23.25;8.05;;;14.20;99.90;;;;;;5039821;28;20195;-40
2023/05/27 00:32:05;;;;;;;14.10;7.50;;;14.20;99.90;;;;;;5033561;28;20401;-41
2023/05/27 00:34:34;;;;;;;12.98;7.53;;;14.10;99.90;;;;;;5025807;28;20508;-38
2023/05/27 00:37:02;;;;;;;17.73;7.68;;;14.10;99.90;;;;;;5036782;28;20047;-40
2023/05/27 00:39:29;;;;;;;13.10;7.30;;;14.10;99.90;;;;;;5057290;28;20045;-41
2023/05/27 00:41:58;;;;;;;14.40;7.80;;;14.20;99.90;;;;;;5064396;28;20064;-41
2023/05/27 00:44:25;;;;;;;15.05;7.45;;;14.10;99.90;;;;;;5049992;28;20400;-39
2023/05/27 00:46:53;;;;;;;15.75;7.80;;;14.10;99.90;;;;;;5047579;28;20087;-42
2023/05/27 00:49:20;;;;;;;17.10;8.25;;;14.10;99.90;;;;;;5032636;28;20108;-42
2023/05/27 00:51:47;;;;;;;21.35;9.52;;;14.00;99.90;;;;;;5048415;28;20053;-41
2023/05/27 00:54:15;;;;;;;12.63;7.45;;;14.00;99.90;;;;;;5044944;28;20607;-42
2023/05/27 00:56:43;;;;;;;15.88;7.68;;;14.00;99.90;;;;;;5035619;28;20091;-42
2023/05/27 00:59:11;;;;;;;15.75;8.38;;;13.90;99.90;;;;;;5039369;28;20041;-43
2023/05/27 01:01:40;;;;;;;13.13;8.27;;;13.90;99.90;;;;;;5020902;28;20037;-43
2023/05/27 01:04:12;;;;;;;20.25;8.27;;;13.90;99.90;;;;;;5048274;28;20151;-43
2023/05/27 01:06:49;;;;;;;15.68;7.97;;;13.80;99.90;;;;;;5049274;28;20572;-41
2023/05/27 01:09:43;;;;;;;16.10;8.05;;;13.80;99.90;;;;;;5043476;28;20053;-41
2023/05/27 01:12:35;;;;;;;14.68;8.32;;;13.80;99.90;;;;;;5014053;28;20477;-43
2023/05/27 01:15:05;;;;;;;18.15;8.63;;;13.70;99.90;;;;;;5029138;28;20418;-42
2023/05/27 01:17:42;;;;;;;17.20;8.30;;;13.70;99.90;;;;;;5029938;28;20053;-42
2023/05/27 01:20:11;;;;;;;19.75;7.72;;;13.60;99.90;;;;;;5023855;28;20414;-42
2023/05/27 01:22:43;;;;;;;18.38;8.00;;;13.60;99.90;;;;;;5025669;28;20056;-41
2023/05/27 01:25:11;;;;;;;16.70;8.10;;;13.60;99.90;;;;;;5016188;28;20045;-41
2023/05/27 01:27:40;;;;;;;21.95;8.90;;;13.50;99.90;;;;;;5040095;28;20048;-42
2023/05/27 01:30:08;;;;;;;24.58;9.43;;;13.50;99.90;;;;;;5044104;28;20133;-43
2023/05/27 01:32:42;;;;;;;16.48;8.05;;;13.50;99.90;;;;;;5054364;28;20585;-42
2023/05/27 01:35:36;;;;;;;24.27;8.25;;;13.50;99.90;;;;;;5054264;28;20120;-39
2023/05/27 01:38:08;;;;;;;15.32;8.13;;;13.50;99.90;;;;;;5031529;28;20128;-43
2023/05/27 01:40:40;;;;;;;14.32;7.85;;;13.50;99.90;;;;;;5028729;28;20037;-41
2023/05/27 01:43:09;;;;;;;18.83;7.78;;;13.40;99.90;;;;;;5014164;28;20037;-41
2023/05/27 01:45:38;;;;;;;13.82;8.02;;;13.40;99.90;;;;;;5041998;28;20458;-42
2023/05/27 01:48:06;;;;;;;19.73;9.10;;;13.30;99.90;;;;;;5037222;28;20041;-42
2023/05/27 01:50:34;;;;;;;15.98;7.88;;;13.30;99.90;;;;;;5044301;28;20288;-41
2023/05/27 01:53:03;;;;;;;19.88;8.65;;;13.30;99.90;;;;;;5020716;28;20420;-40
2023/05/27 01:55:30;;;;;;;18.60;8.75;;;13.20;99.90;;;;;;5027231;28;20053;-41
2023/05/27 01:57:58;;;;;;;12.82;8.02;;;13.20;99.90;;;;;;5028305;28;20044;-42
2023/05/27 02:00:25;;;;;;;13.68;8.07;;;13.20;99.90;;;;;;5059025;23;20060;-46
2023/05/27 02:02:53;;;;;;;13.68;7.93;;;13.20;99.90;;;;;;5061229;28;20055;-45
2023/05/27 02:05:20;;;;;;;15.20;6.90;;;13.20;99.90;;;;;;5064705;28;20040;-45
2023/05/27 02:07:48;;;;;;;20.08;7.55;;;13.10;99.90;;;;;;5077800;28;20037;-47
2023/05/27 02:10:15;;;;;;;15.10;7.25;;;13.10;99.90;;;;;;5084862;28;20044;-49
2023/05/27 02:12:42;;;;;;;17.55;7.78;;;13.10;99.90;;;;;;5084534;28;20040;-45
2023/05/27 02:15:11;;;;;;;16.25;7.78;;;13.10;99.90;;;;;;5078787;28;20127;-44
2023/05/27 02:17:38;;;;;;;16.98;7.95;;;13.00;99.90;;;;;;5061627;28;20524;-47
2023/05/27 02:20:06;;;;;;;20.95;8.02;;;13.00;99.90;;;;;;5079523;28;20067;-46
2023/05/27 02:22:35;;;;;;;17.75;8.05;;;13.00;99.90;;;;;;5107002;28;20263;-45
2023/05/27 02:25:03;;;;;;;15.55;7.25;;;13.00;99.90;;;;;;5104934;28;20047;-45
2023/05/27 02:27:30;;;;;;;13.85;7.43;;;13.00;99.90;;;;;;5104245;28;20040;-45
2023/05/27 02:29:57;;;;;;;11.00;7.82;;;13.00;99.90;;;;;;5091045;28;20407;-47
2023/05/27 02:32:25;;;;;;;14.85;8.00;;;13.00;99.90;;;;;;5076322;28;20127;-49
2023/05/27 02:34:52;;;;;;;19.65;8.43;;;13.00;99.90;;;;;;5101515;28;20055;-49
2023/05/27 02:37:20;;;;;;;16.10;7.90;;;12.90;99.90;;;;;;5081301;28;20051;-47
2023/05/27 02:39:47;;;;;;;17.35;7.32;;;12.80;99.90;;;;;;5077966;28;20070;-46
2023/05/27 02:42:15;;;;;;;14.60;7.60;;;12.70;99.90;;;;;;5078486;28;20437;-44
2023/05/27 02:44:42;;;;;;;14.68;7.93;;;12.60;99.90;;;;;;5116615;28;20043;-45
2023/05/27 02:47:10;;;;;;;14.45;6.93;;;12.60;99.90;;;;;;5093128;28;20092;-44
2023/05/27 02:49:39;;;;;;;17.05;7.55;;;12.50;99.90;;;;;;5087536;28;20051;-46
2023/05/27 02:52:06;;;;;;;13.93;7.57;;;12.50;99.90;;;;;;5077547;28;20096;-47
2023/05/27 02:54:34;;;;;;;13.50;7.43;;;12.40;99.90;;;;;;5077416;28;20400;-44
2023/05/27 02:57:01;;;;;;;12.65;7.43;;;12.40;99.90;;;;;;5092693;28;20043;-45
2023/05/27 02:59:28;;;;;;;13.27;7.53;;;12.30;99.90;;;;;;5101379;28;20121;-48
2023/05/27 03:01:56;;;;;;;12.93;6.97;;;12.20;99.90;;;;;;5084155;28;20599;-46
2023/05/27 03:04:23;;;;;;;12.75;7.20;;;12.10;99.90;;;;;;5086486;28;20048;-48
2023/05/27 03:06:52;;;;;;;12.90;7.47;;;12.10;99.90;;;;;;5084060;28;20033;-47
2023/05/27 03:09:19;;;;;;;18.40;8.00;;;12.00;99.90;;;;;;5094429;28;20043;-48
2023/05/27 03:11:46;;;;;;;14.88;7.30;;;12.00;99.90;;;;;;5108460;28;20043;-46
2023/05/27 03:14:14;;;;;;;12.65;7.68;;;11.90;99.90;;;;;;5077316;28;20048;-47
2023/05/27 03:16:42;;;;;;;12.68;6.95;;;11.90;99.90;;;;;;5082378;28;20111;-46
2023/05/27 03:19:09;;;;;;;15.98;7.53;;;11.90;99.90;;;;;;5094798;28;20051;-46
2023/05/27 03:21:37;;;;;;;18.30;7.75;;;11.90;99.90;;;;;;5075970;28;20072;-45
2023/05/27 03:24:04;;;;;;;17.88;8.68;;;11.80;99.90;;;;;;5085099;28;20097;-46
2023/05/27 03:26:31;;;;;;;15.60;7.13;;;11.70;99.90;;;;;;5099070;28;20506;-46
2023/05/27 03:29:03;;;;;;;15.98;7.82;;;11.70;99.90;;;;;;5068866;28;20083;-46
2023/05/27 03:31:31;;;;;;;17.77;8.32;;;11.70;99.90;;;;;;5076265;28;20039;-44
2023/05/27 03:34:06;;;;;;;16.95;7.90;;;11.70;99.90;;;;;;5071377;28;20524;-47
2023/05/27 03:36:35;;;;;;;15.20;7.38;;;11.60;99.90;;;;;;5068438;28;20044;-45
2023/05/27 03:39:04;;;;;;;19.52;8.20;;;11.60;99.90;;;;;;5096404;28;20097;-46
2023/05/27 03:41:34;;;;;;;18.73;8.43;;;11.60;99.90;;;;;;5084419;28;20108;-44
2023/05/27 03:44:01;;;;;;;15.52;8.48;;;11.50;99.90;;;;;;5080188;28;20043;-45
2023/05/27 03:46:29;;;;;;;15.48;8.15;;;11.50;99.90;;;;;;5083070;28;20143;-46
2023/05/27 03:48:58;;;;;;;21.20;8.40;;;11.50;99.90;;;;;;5091503;28;20067;-48
2023/05/27 03:51:25;;;;;;;16.30;8.02;;;11.50;99.90;;;;;;5075320;28;20055;-49
2023/05/27 03:53:52;;;;;;;12.40;7.88;;;11.50;99.90;;;;;;5091738;28;20079;-48
2023/05/27 03:56:20;;;;;;;19.20;7.97;;;11.50;99.90;;;;;;5086324;28;20052;-46
2023/05/27 03:58:50;;;;;;;13.52;7.47;;;11.60;99.90;;;;;;5069535;28;20055;-48
2023/05/27 04:01:17;;;;;;;15.27;7.72;;;11.60;99.90;;;;;;5070751;28;20137;-44
2023/05/27 04:03:45;;;;;;;13.77;8.10;;;11.60;99.90;;;;;;5081894;28;20036;-47
2023/05/27 04:06:12;;;;;;;15.63;7.40;;;11.70;99.90;;;;;;5095586;28;20035;-47
2023/05/27 04:08:40;;;;;;;14.88;7.32;;;11.70;99.90;;;;;;5093830;28;20234;-47
2023/05/27 04:11:12;;;;;;;16.33;7.07;;;11.70;99.90;;;;;;5081981;28;20040;-45
2023/05/27 04:13:40;;;;;;;12.00;7.18;;;11.70;99.90;;;;;;5082922;28;20451;-44
2023/05/27 04:16:08;;;;;;;15.85;7.18;;;11.70;99.90;;;;;;5109790;28;20075;-46
2023/05/27 04:18:35;;;;;;;13.95;7.20;;;11.80;99.90;;;;;;5067458;28;20058;-48
2023/05/27 04:21:04;;;;;;;22.13;7.45;;;11.80;99.90;;;;;;5066197;28;20036;-49
2023/05/27 04:23:31;;;;;;;15.52;7.43;;;11.90;99.90;;;;;;5080188;28;20048;-43
2023/05/27 04:26:01;;;;;;;11.00;6.85;;;11.90;99.90;;;;;;5073631;28;20046;-45
2023/05/27 04:28:34;;;;;;;15.25;7.07;;;11.80;99.90;;;;;;5070163;28;20446;-48
2023/05/27 04:31:01;;;;;;;14.48;6.68;;;11.80;99.90;;;;;;5082980;28;20123;-48
2023/05/27 04:33:44;;;;;;;16.67;7.33;;;11.90;99.90;;;;;;5071021;28;20040;-47
2023/05/27 04:36:12;;;;;;;13.23;7.43;;;12.00;99.90;;;;;;5075144;28;20158;-46
2023/05/27 04:38:55;;;;;;;18.83;10.90;;;12.00;99.90;;;;;;5073836;28;20131;-49
2023/05/27 04:41:27;;;;;;;15.02;7.90;;;12.00;99.90;;;;;;5081488;28;20134;-47
2023/05/27 04:44:12;;;;;;;14.38;7.53;;;12.10;99.90;;;;;;5109670;28;20115;-46
2023/05/27 04:46:43;;;;;;;12.07;6.97;;;12.20;99.90;;;;;;5080744;28;20036;-47
2023/05/27 04:49:11;;;;;;;15.98;7.05;;;12.20;99.90;;;;;;5071338;28;20038;-46
2023/05/27 04:51:39;;;;;;;14.20;7.20;;;12.20;99.90;;;;;;5077544;28;20469;-45
2023/05/27 04:54:07;;;;;;;14.68;7.28;;;12.30;99.90;;;;;;5090487;28;20071;-44
2023/05/27 04:56:36;;;;;;;19.23;7.22;;;12.20;99.90;;;;;;5100710;28;20122;-46
2023/05/27 04:59:05;;;;;;;12.10;7.22;;;12.30;99.90;;;;;;5071958;28;20040;-49
2023/05/27 05:01:58;;;;;;;12.85;6.95;;;12.50;99.90;;;;;;5064853;28;20118;-44
2023/05/27 05:04:25;;;;;;;11.95;6.82;;;12.60;99.90;;;;;;5089444;28;20055;-47
2023/05/27 05:06:59;;;;;;;12.65;6.72;;;12.70;99.90;;;;;;5079718;28;20123;-46
2023/05/27 05:09:28;;;;;;;16.98;7.10;;;12.70;99.90;;;;;;5060247;28;20043;-46
2023/05/27 05:12:01;;;;;;;15.85;7.47;;;12.70;99.90;;;;;;5077095;28;20790;-45
2023/05/27 05:14:28;;;;;;;14.13;7.47;;;12.70;99.90;;;;;;5077186;28;20048;-46
2023/05/27 05:16:56;;;;;;;14.68;7.40;;;12.70;99.90;;;;;;5090007;28;20577;-44
2023/05/27 05:19:23;;;;;;;15.38;7.40;;;12.80;99.90;;;;;;5072564;28;20051;-45
2023/05/27 05:21:51;;;;;;;12.77;7.05;;;12.80;99.90;;;;;;5088024;28;20047;-44
2023/05/27 05:24:18;;;;;;;17.33;8.02;;;12.80;99.90;;;;;;5087233;28;20415;-42
2023/05/27 05:26:46;;;;;;;14.98;7.55;;;12.90;99.90;;;;;;5091174;28;20048;-44
2023/05/27 05:29:13;;;;;;;13.68;7.10;;;13.00;99.90;;;;;;5083893;28;20143;-47
2023/05/27 05:31:44;;;;;;;18.92;7.38;;;13.20;99.90;;;;;;5056714;28;20412;-46
2023/05/27 05:34:17;;;;;;;15.77;7.18;;;13.20;99.90;;;;;;5054535;28;20048;-49
2023/05/27 05:36:46;;;;;;;16.13;7.90;;;13.40;99.90;;;;;;5062661;28;20068;-43
2023/05/27 05:39:13;;;;;;;14.57;7.43;;;13.50;99.90;;;;;;5061305;28;20040;-45
2023/05/27 05:41:46;;;;;;;11.35;6.97;;;13.70;99.90;;;;;;5061058;28;20523;-44
2023/05/27 05:44:17;;;;;;;19.63;8.10;;;13.80;99.90;;;;;;5065157;28;20067;-46
2023/05/27 05:46:44;;;;;;;15.27;7.50;;;14.00;99.90;;;;;;5064592;28;20040;-45
2023/05/27 05:49:12;;;;;;;15.45;8.07;;;14.10;99.90;;;;;;5057528;28;20131;-48
2023/05/27 05:51:43;;;;;;;17.17;7.90;;;14.20;99.90;;;;;;5060040;28;20526;-45
2023/05/27 05:54:11;;;;;;;14.23;7.18;;;14.30;99.90;;;;;;5064769;28;20045;-46
2023/05/27 05:56:43;;;;;;;10.48;6.85;;;14.40;99.90;;;;;;5062380;28;20131;-45
2023/05/27 05:59:11;;;;;;;12.98;6.72;;;14.50;99.90;;;;;;5077686;28;20070;-43
2023/05/27 06:01:38;;;;;;;12.85;6.72;;;14.60;99.90;;;;;;5076716;28;20048;-45
2023/05/27 06:04:06;;;;;;;13.55;6.93;;;14.70;99.90;;;;;;5064886;28;20044;-46
2023/05/27 06:06:39;;;;;;;13.77;6.25;;;14.80;99.90;;;;;;5055944;28;20412;-51
2023/05/27 06:09:26;;;;;;;11.70;6.65;;;15.00;99.90;;;;;;5083319;28;20076;-46
2023/05/27 06:11:57;;;;;;;12.93;6.40;;;15.10;99.90;;;;;;5072741;28;20040;-46
2023/05/27 06:14:25;;;;;;;12.40;6.25;;;15.10;99.90;;;;;;5068645;28;20045;-47
2023/05/27 06:16:56;;;;;;;12.05;6.55;;;15.20;99.90;;;;;;5073660;28;20044;-45
2023/05/27 06:19:24;;;;;;;10.23;6.05;;;15.30;99.90;;;;;;5065761;28;20056;-46
2023/05/27 06:21:51;;;;;;;12.15;6.60;;;15.30;99.90;;;;;;5072855;28;20523;-46
2023/05/27 06:24:24;;;;;;;13.05;6.72;;;15.40;99.90;;;;;;5088245;28;20048;-45
2023/05/27 06:27:01;;;;;;;15.55;6.50;;;15.50;99.90;;;;;;5060362;28;20033;-45
2023/05/27 06:29:29;;;;;;;12.20;6.78;;;15.50;99.90;;;;;;5068680;28;20452;-45
2023/05/27 06:31:57;;;;;;;12.25;6.57;;;15.50;99.90;;;;;;5059135;28;20048;-47
2023/05/27 06:34:24;;;;;;;14.07;7.07;;;15.70;99.90;;;;;;5058876;28;20045;-46
2023/05/27 06:36:53;;;;;;;16.92;7.53;;;15.80;99.90;;;;;;5060735;28;20064;-45
2023/05/27 06:39:20;;;;;;;16.25;7.22;;;15.80;99.90;;;;;;5062564;28;20121;-45
2023/05/27 06:41:47;;;;;;;16.02;7.38;;;15.80;99.90;;;;;;5071097;28;20051;-47
2023/05/27 06:44:43;;;;;;;13.32;7.20;;;15.90;99.90;;;;;;5069368;28;20044;-45
2023/05/27 06:47:15;;;;;;;14.55;6.82;;;16.00;99.90;;;;;;5074379;28;20039;-47
2023/05/27 06:49:43;;;;;;;14.20;6.85;;;16.00;99.90;;;;;;5063287;28;20043;-47
2023/05/27 06:52:11;;;;;;;11.63;6.45;;;16.10;99.90;;;;;;5062400;28;20549;-43
2023/05/27 06:55:02;;;;;;;16.58;7.45;;;16.20;99.90;;;;;;5067050;28;20129;-43
2023/05/27 06:57:50;;;;;;;13.88;6.53;;;16.20;99.90;;;;;;5029617;28;20421;-47
2023/05/27 07:00:27;;;;;;;13.50;6.93;;;16.40;99.90;;;;;;5072538;28;20055;-43
2023/05/27 07:03:14;;;;;;;13.15;6.72;;;16.40;99.90;;;;;;5049069;28;20054;-46
2023/05/27 07:05:42;;;;;;;14.55;6.38;;;16.50;99.90;;;;;;5068475;28;20416;-45
2023/05/27 07:08:10;;;;;;;15.07;7.32;;;16.50;99.90;;;;;;5082063;28;20051;-47
2023/05/27 07:10:38;;;;;;;17.35;7.57;;;16.60;99.90;;;;;;5062985;28;20044;-45
2023/05/27 07:13:05;;;;;;;18.05;6.97;;;16.70;99.90;;;;;;5067546;28;20037;-48
2023/05/27 07:15:43;;;;;;;17.92;7.38;;;16.70;99.90;;;;;;5071856;28;20083;-44
2023/05/27 07:18:10;;;;;;;13.23;6.97;;;16.80;99.90;;;;;;5071096;28;20048;-47
2023/05/27 07:20:39;;;;;;;17.92;7.50;;;16.90;99.90;;;;;;5069722;28;20585;-53
2023/05/27 07:23:09;;;;;;;13.27;7.70;;;16.80;99.90;;;;;;5074731;28;20043;-45
2023/05/27 07:25:38;;;;;;;12.60;6.93;;;16.90;99.90;;;;;;5071780;28;20046;-49
2023/05/27 07:28:05;;;;;;;14.02;7.05;;;17.10;99.90;;;;;;5082900;28;20040;-45
2023/05/27 07:30:38;;;;;;;13.55;6.60;;;17.20;99.90;;;;;;5062959;28;20040;-48
2023/05/27 07:33:06;;;;;;;12.60;6.97;;;17.20;99.90;;;;;;5070011;28;20074;-49
2023/05/27 07:35:34;;;;;;;12.32;6.70;;;17.20;99.90;;;;;;5071845;28;20366;-50
2023/05/27 07:38:02;;;;;;;10.88;6.75;;;17.10;99.90;;;;;;5071889;28;20056;-46
2023/05/27 07:40:29;;;;;;;13.25;7.40;;;17.20;99.90;;;;;;5070205;28;20059;-46
2023/05/27 07:42:57;;;;;;;15.30;6.65;;;17.30;99.90;;;;;;5091069;28;20044;-48
2023/05/27 07:45:25;;;;;;;10.75;6.75;;;17.30;99.90;;;;;;5074926;28;20048;-47
2023/05/27 07:47:52;;;;;;;12.43;6.25;;;17.50;99.90;;;;;;5080962;28;20047;-44
2023/05/27 07:50:20;;;;;;;13.52;6.20;;;17.60;99.90;;;;;;5091358;28;20044;-45
2023/05/27 07:53:08;;;;;;;10.93;6.35;;;17.70;99.90;;;;;;5071852;28;20049;-42
2023/05/27 07:55:38;;;;;;;14.10;7.47;;;17.80;99.90;;;;;;5078402;28;20047;-45
2023/05/27 07:58:05;;;;;;;14.75;7.03;;;17.90;99.90;;;;;;5109295;28;20082;-47
2023/05/27 08:00:46;;;;;;;11.10;6.57;;;18.00;99.90;;;;;;5077517;23;20083;-39
2023/05/27 08:03:14;;;;;;;21.80;6.63;;;18.10;99.90;;;;;;5068036;28;20053;-39
2023/05/27 08:06:13;;;;;;;12.80;7.25;;;18.10;99.90;;;;;;5007935;28;20153;-39
2023/05/27 08:08:50;;;;;;;11.68;6.72;;;18.30;99.90;;;;;;5002312;28;20155;-41
2023/05/27 08:11:36;;;;;;;13.07;6.28;;;18.30;99.90;;;;;;4996547;28;20046;-37
2023/05/27 08:14:20;;;;;;;11.88;6.43;;;18.30;99.90;;;;;;5004959;28;20192;-39
2023/05/27 08:17:11;;;;;;;11.48;6.53;;;18.40;99.90;;;;;;4968995;28;20086;-40
2023/05/27 08:19:54;;;;;;;12.63;6.88;;;18.50;99.90;;;;;;4966046;28;20135;-40
2023/05/27 08:22:50;;;;;;;11.80;6.45;;;18.60;99.90;;;;;;4974997;28;20058;-38
2023/05/27 08:25:17;;;;;;;14.55;6.45;;;18.60;99.90;;;;;;4951393;28;20547;-38
2023/05/27 08:28:01;;;;;;;14.50;6.63;;;18.70;99.90;;;;;;4942327;29;20233;-37
2023/05/27 08:30:37;;;;;;;13.65;6.35;;;18.70;99.90;;;;;;4961606;28;20165;-40
2023/05/27 08:33:16;;;;;;;14.25;6.88;;;18.90;99.90;;;;;;4963203;28;20599;-41
2023/05/27 08:35:45;;;;;;;13.90;8.25;;;19.00;99.90;;;;;;4969307;28;20042;-39
2023/05/27 08:38:12;;;;;;;13.85;6.78;;;19.10;99.90;;;;;;4962320;28;20035;-39
2023/05/27 08:40:41;;;;;;;12.63;7.13;;;19.20;99.90;;;;;;4944899;28;20339;-42
2023/05/27 08:43:08;;;;;;;16.52;6.93;;;19.30;99.90;;;;;;4967401;28;20066;-41
2023/05/27 08:45:45;;;;;;;13.68;6.50;;;19.40;99.90;;;;;;4964031;28;20047;-40
2023/05/27 08:48:13;;;;;;;10.50;6.45;;;19.40;99.90;;;;;;4977506;28;20034;-44
2023/05/27 08:50:42;;;;;;;13.13;6.72;;;19.60;99.90;;;;;;4987615;28;20094;-40
2023/05/27 08:53:10;;;;;;;16.45;7.38;;;19.70;99.90;;;;;;4976944;28;20098;-42
2023/05/27 08:55:40;;;;;;;15.60;9.25;;;19.90;99.90;;;;;;5036528;28;20115;-44
2023/05/27 08:58:10;;;;;;;14.15;6.97;;;19.90;99.90;;;;;;5043970;28;20078;-42
2023/05/27 09:00:43;;;;;;;13.32;6.75;;;20.00;99.90;;;;;;5044740;28;20135;-39
2023/05/27 09:03:17;;;;;;;11.60;6.80;;;20.00;99.90;;;;;;5048828;28;20417;-41
2023/05/27 09:05:45;;;;;;;14.77;8.07;;;20.00;99.90;;;;;;5028901;28;20076;-44
2023/05/27 09:08:13;;;;;;;11.25;7.60;;;20.00;99.90;;;;;;5052189;28;20111;-43
2023/05/27 09:10:41;;;;;;;12.88;7.18;;;20.10;99.90;;;;;;5036054;28;20040;-42
2023/05/27 09:13:09;;;;;;;13.13;7.32;;;20.10;99.90;;;;;;5047052;28;20053;-40
2023/05/27 09:15:36;;;;;;;12.07;7.53;;;20.30;99.90;;;;;;5036140;28;20509;-43
2023/05/27 09:18:05;;;;;;;12.82;7.05;;;20.50;99.90;;;;;;5027784;28;20050;-42
2023/05/27 09:20:32;;;;;;;13.23;6.82;;;20.50;99.90;;;;;;5048419;28;20048;-44
2023/05/27 09:23:02;;;;;;;12.32;6.75;;;20.70;99.90;;;;;;5044113;28;20065;-43
2023/05/27 09:25:30;;;;;;;14.63;7.13;;;20.70;99.90;;;;;;5056185;28;20049;-40
2023/05/27 09:27:57;;;;;;;11.68;6.85;;;20.90;99.90;;;;;;5047128;28;20043;-41
2023/05/27 09:30:26;;;;;;;15.57;7.50;;;20.90;99.60;;;;;;5044411;28;20117;-42
2023/05/27 09:33:04;;;;;;;14.20;7.07;;;21.00;99.70;;;;;;5034708;28;20426;-41
2023/05/27 09:35:37;;;;;;;13.93;7.28;;;21.10;99.00;;;;;;5037009;28;20524;-42
2023/05/27 09:38:08;;;;;;;13.77;6.80;;;21.40;98.70;;;;;;5039069;28;20113;-44
2023/05/27 09:40:37;;;;;;;12.77;6.72;;;21.60;98.40;;;;;;5042666;28;20540;-41
2023/05/27 09:43:05;;;;;;;16.80;6.88;;;21.70;97.50;;;;;;5030933;28;20033;-39
2023/05/27 09:45:33;;;;;;;11.10;6.55;;;21.70;96.90;;;;;;5052768;28;20045;-39
2023/05/27 09:48:02;;;;;;;11.70;6.18;;;21.70;96.20;;;;;;5042093;28;20057;-42
2023/05/27 09:50:31;;;;;;;14.27;6.63;;;21.80;96.60;;;;;;5042432;28;20525;-40
2023/05/27 09:53:01;;;;;;;16.45;7.20;;;21.80;95.10;;;;;;5040088;28;20454;-40
2023/05/27 09:55:41;;;;;;;11.75;7.85;;;22.00;95.00;;;;;;5046577;28;20072;-44
2023/05/27 09:58:10;;;;;;;24.30;11.73;;;22.20;95.20;;;;;;5033384;28;20042;-41
2023/05/27 10:00:40;;;;;;;13.15;6.80;;;22.40;95.50;;;;;;5044902;28;20102;-41
2023/05/27 10:03:10;;;;;;;11.63;6.50;;;22.50;94.60;;;;;;5048058;28;20049;-43
2023/05/27 10:05:38;;;;;;;11.32;6.38;;;22.60;93.90;;;;;;5043212;28;20091;-40
2023/05/27 10:08:06;;;;;;;12.27;7.05;;;22.70;93.00;;;;;;5042063;28;20045;-42
2023/05/27 10:10:51;;;;;;;12.82;7.03;;;22.80;93.50;;;;;;5038259;28;20087;-41
2023/05/27 10:13:20;;;;;;;14.15;6.78;;;22.80;92.40;;;;;;5044297;28;20128;-43
2023/05/27 10:15:50;;;;;;;12.60;7.00;;;22.80;92.30;;;;;;5026738;28;20042;-42
2023/05/27 10:18:28;;;;;;;12.95;6.60;;;23.00;90.50;;;;;;5025205;28;20050;-42
2023/05/27 10:20:58;;;;;;;12.50;6.60;;;22.90;89.60;;;;;;5039582;28;20061;-42
2023/05/27 10:23:27;;;;;;;13.82;7.30;;;23.00;90.20;;;;;;5032751;28;20136;-43
2023/05/27 10:26:02;;;;;;;13.23;6.63;;;23.20;90.70;;;;;;5045643;28;20054;-40
2023/05/27 10:28:39;;;;;;;19.10;12.27;;;23.40;88.00;;;;;;5042508;28;20674;-41
2023/05/27 10:31:13;;;;;;;15.60;6.78;;;23.70;87.50;;;;;;5045584;28;20075;-39
2023/05/27 10:33:45;;;;;;;13.82;6.95;;;23.50;86.90;;;;;;5037128;28;20052;-38
2023/05/27 10:36:21;;;;;;;12.77;6.38;;;23.50;87.00;;;;;;5038299;28;20045;-40
2023/05/27 10:38:56;;;;;;;12.98;6.40;;;23.70;86.10;;;;;;5035703;28;20620;-41
2023/05/27 10:41:24;;;;;;;12.27;6.32;;;23.80;85.20;;;;;;5027508;28;20064;-38
2023/05/27 10:43:59;;;;;;;10.77;5.70;;;23.90;82.90;;;;;;5035662;28;20105;-41
2023/05/27 10:46:37;;;;;;;12.02;6.63;;;24.00;83.30;;;;;;5036923;28;20083;-40
2023/05/27 10:49:16;;;;;;;12.15;6.30;;;24.40;82.50;;;;;;5035930;28;20041;-43
2023/05/27 10:51:47;;;;;;;11.38;6.20;;;24.70;82.80;;;;;;5043862;28;20044;-45
2023/05/27 10:54:16;;;;;;;10.75;6.35;;;24.80;81.80;;;;;;5037170;28;20111;-43
2023/05/27 10:56:55;;;;;;;9.52;5.90;;;25.10;79.70;;;;;;5041139;28;20075;-40
2023/05/27 10:59:23;;;;;;;14.73;6.22;;;25.40;79.60;;;;;;5035612;28;20137;-41
2023/05/27 11:01:54;;;;;;;12.18;6.63;;;25.50;78.50;;;;;;5031938;28;20070;-42
2023/05/27 11:04:22;;;;;;;9.07;6.20;;;25.70;76.40;;;;;;5050159;28;20697;-41
2023/05/27 11:07:00;;;;;;;11.60;6.53;;;25.80;76.90;;;;;;5035565;28;20042;-44
2023/05/27 11:09:53;;;;;;;12.83;6.00;;;25.90;74.60;;;;;;5025984;28;20038;-42
2023/05/27 11:12:23;;;;;;;12.80;6.60;;;26.30;73.80;;;;;;5025697;28;20474;-43
2023/05/27 11:14:54;;;;;;;16.58;6.65;;;26.50;72.40;;;;;;5041831;28;20106;-41
2023/05/27 11:17:22;;;;;;;10.05;6.03;;;26.70;70.60;;;;;;5036892;28;20053;-41
2023/05/27 11:19:51;;;;;;;11.82;6.70;;;26.90;70.30;;;;;;5040830;28;20037;-43
2023/05/27 11:22:19;;;;;;;12.65;6.93;;;26.60;67.70;;;;;;5048523;28;20079;-45
2023/05/27 11:25:00;;;;;;;12.00;7.13;;;26.50;67.70;;;;;;5042364;28;20041;-41
2023/05/27 11:27:36;;;;;;;11.02;7.43;;;26.90;67.00;;;;;;5036495;28;20123;-45
2023/05/27 11:30:11;;;;;;;9.68;6.45;;;27.00;67.10;;;;;;5030160;28;20449;-42
2023/05/27 11:32:42;;;;;;;9.20;6.13;;;26.90;67.30;;;;;;5029940;28;20460;-44
2023/05/27 11:35:18;;;;;;;12.52;6.22;;;27.20;66.50;;;;;;5034761;28;20042;-40
2023/05/27 11:37:50;;;;;;;8.77;5.75;;;27.60;65.40;;;;;;5048044;28;20414;-38
2023/05/27 11:40:19;;;;;;;13.27;6.40;;;27.80;64.40;;;;;;5043221;28;20056;-44
2023/05/27 11:42:47;;;;;;;10.70;5.88;;;28.10;61.80;;;;;;5037959;28;20133;-40
2023/05/27 11:45:16;;;;;;;9.52;5.55;;;27.90;61.10;;;;;;5033331;28;20474;-46
2023/05/27 11:47:46;;;;;;;12.10;5.88;;;28.20;61.50;;;;;;5036482;28;20605;-43
2023/05/27 11:50:21;;;;;;;11.48;8.48;;;28.40;62.40;;;;;;5046501;28;20053;-41
2023/05/27 11:52:55;;;;;;;8.55;6.07;;;28.60;60.70;;;;;;5058362;28;20144;-40
2023/05/27 11:55:23;;;;;;;11.30;6.22;;;28.50;57.90;;;;;;5046429;28;20045;-44
2023/05/27 11:57:51;;;;;;;9.82;6.15;;;29.00;57.80;;;;;;5040123;28;20500;-40
2023/05/27 12:00:19;;;;;;;9.88;5.60;;;29.50;56.80;;;;;;5031743;28;20045;-42
2023/05/27 12:02:47;;;;;;;9.18;6.00;;;29.50;55.90;;;;;;5035176;28;20042;-44
2023/05/27 12:05:15;;;;;;;8.68;5.95;;;29.60;56.10;;;;;;5036258;28;20098;-40
2023/05/27 12:07:59;;;;;;;11.02;6.57;;;30.10;55.20;;;;;;5051570;28;20041;-43
2023/05/27 12:10:27;;;;;;;11.00;6.78;;;30.40;54.10;;;;;;5056755;28;20525;-42
2023/05/27 12:13:03;;;;;;;8.57;6.00;;;31.00;52.70;;;;;;5038696;28;20057;-42
2023/05/27 12:15:31;;;;;;;13.57;5.90;;;31.20;52.60;;;;;;5039108;28;20053;-39
2023/05/27 12:18:04;;;;;;;8.13;6.15;;;31.20;51.30;;;;;;5045541;28;20060;-39
2023/05/27 12:20:32;;;;;;;9.20;5.75;;;31.00;50.90;;;;;;5044995;28;20371;-42
2023/05/27 12:23:00;;;;;;;9.95;5.88;;;31.10;50.60;;;;;;5030912;28;20358;-43
2023/05/27 12:25:27;;;;;;;8.30;5.95;;;31.00;50.50;;;;;;5028718;28;20137;-41
2023/05/27 12:27:54;;;;;;;9.73;6.15;;;31.50;50.10;;;;;;5029772;28;20091;-43
2023/05/27 12:30:22;;;;;;;7.70;5.95;;;31.70;50.80;;;;;;5029126;28;20124;-44
2023/05/27 12:32:49;;;;;;;9.95;6.50;;;32.20;50.20;;;;;;5030161;28;20073;-39
2023/05/27 12:35:17;;;;;;;9.90;6.50;;;32.50;49.90;;;;;;5033891;28;20055;-42
2023/05/27 12:37:44;;;;;;;9.95;5.82;;;32.50;50.40;;;;;;5026717;28;20045;-43
2023/05/27 12:40:14;;;;;;;10.30;6.35;;;33.10;48.70;;;;;;5048882;28;20053;-43
2023/05/27 12:42:42;;;;;;;10.52;6.60;;;33.30;47.00;;;;;;5039225;28;20103;-40
2023/05/27 12:45:10;;;;;;;11.80;6.70;;;33.30;46.60;;;;;;5037494;28;20041;-43
2023/05/27 12:47:38;;;;;;;10.23;6.25;;;32.90;46.70;;;;;;5040195;28;20087;-43
2023/05/27 12:50:06;;;;;;;10.63;6.63;;;33.20;46.70;;;;;;5046086;28;20037;-42
2023/05/27 12:52:35;;;;;;;10.25;6.88;;;33.70;46.20;;;;;;5031035;28;20041;-41
2023/05/27 12:55:03;;;;;;;15.85;8.10;;;33.60;47.30;;;;;;5035948;28;20458;-45
2023/05/27 12:57:30;;;;;;;9.60;6.57;;;33.00;47.90;;;;;;5041921;28;20427;-42